createdAt,value
2022-12-31T00:01:20.105Z,98530.64
2022-12-31T00:03:47.781Z,98530.98
2022-12-31T00:06:33.219Z,98530.81
2022-12-31T00:09:03.698Z,98529.96
2022-12-31T00:11:32.149Z,98529.46
2022-12-31T00:14:00.380Z,98524.94
2022-12-31T00:16:35.219Z,98521.58
2022-12-31T00:19:05.258Z,98515.87
2022-12-31T00:21:34.257Z,98513.53
2022-12-31T00:24:04.098Z,98525.94
2022-12-31T00:26:34.208Z,98540.89
2022-12-31T00:29:02.853Z,98540.55
2022-12-31T00:31:34.856Z,98535.68
2022-12-31T00:34:03.665Z,98542.55
2022-12-31T00:36:38.356Z,98541.38
2022-12-31T00:39:07.993Z,98539.21
2022-12-31T00:41:36.695Z,98538.86
2022-12-31T00:44:05.239Z,98541.56
2022-12-31T00:46:33.232Z,98553.14
2022-12-31T00:49:01.295Z,98562.20
2022-12-31T00:56:46.271Z,98561.68
2022-12-31T00:59:14.542Z,98559.83
2022-12-31T01:01:42.699Z,98559.67
2022-12-31T01:04:14.135Z,98562.69
2022-12-31T01:06:43.073Z,98565.90
2022-12-31T01:09:12.908Z,98574.13
2022-12-31T01:11:40.906Z,98571.10
2022-12-31T01:14:12.709Z,98574.45
2022-12-31T01:16:46.771Z,98575.95
2022-12-31T01:19:21.111Z,98568.23
2022-12-31T01:21:50.596Z,98566.39
2022-12-31T01:24:18.934Z,98573.77
2022-12-31T01:26:47.681Z,98580.31
2022-12-31T01:29:15.836Z,98580.48
2022-12-31T01:31:43.964Z,98586.21
2022-12-31T01:34:11.827Z,98594.61
2022-12-31T01:36:40.240Z,98594.61
2022-12-31T01:39:09.636Z,98593.61
2022-12-31T01:41:41.158Z,98593.63
2022-12-31T01:44:12.266Z,98586.73
2022-12-31T01:46:53.948Z,98581.70
2022-12-31T01:50:03.970Z,98568.26
2022-12-31T01:52:37.472Z,98554.14
2022-12-31T01:55:15.264Z,98563.02
2022-12-31T01:57:45.454Z,98562.02
2022-12-31T02:00:14.274Z,98565.02
2022-12-31T02:02:42.500Z,98574.77
2022-12-31T02:05:36.109Z,98570.21
2022-12-31T02:08:05.168Z,98570.85
2022-12-31T02:10:33.465Z,98561.94
2022-12-31T02:13:01.878Z,98559.05
2022-12-31T02:15:47.782Z,98559.17
2022-12-31T02:19:03.823Z,98562.82
2022-12-31T02:22:16.767Z,98584.98
2022-12-31T02:24:47.953Z,98582.09
2022-12-31T02:27:32.899Z,98579.38
2022-12-31T02:30:11.796Z,98581.01
2022-12-31T02:32:58.664Z,98577.41
2022-12-31T02:35:37.285Z,98578.17
2022-12-31T02:38:09.543Z,98566.84
2022-12-31T02:40:38.721Z,98559.05
2022-12-31T02:43:07.552Z,98552.77
2022-12-31T02:45:40.412Z,98544.60
2022-12-31T02:48:22.540Z,98539.77
2022-12-31T02:51:14.962Z,98534.22
2022-12-31T02:54:10.605Z,98527.91
2022-12-31T02:56:42.604Z,98518.59
2022-12-31T02:59:26.619Z,98519.30
2022-12-31T03:02:07.024Z,98510.83
2022-12-31T03:04:35.975Z,98498.53
2022-12-31T03:07:18.338Z,98480.31
2022-12-31T03:09:46.726Z,98485.21
2022-12-31T03:12:15.741Z,98497.31
2022-12-31T03:14:44.367Z,98510.44
2022-12-31T03:17:12.827Z,98524.70
2022-12-31T03:19:41.246Z,98534.60
2022-12-31T03:22:12.772Z,98536.22
2022-12-31T03:24:41.195Z,98542.94
2022-12-31T03:27:09.801Z,98553.17
2022-12-31T03:29:37.692Z,98557.67
2022-12-31T03:32:05.799Z,98557.61
2022-12-31T03:34:33.662Z,98564.64
2022-12-31T03:37:01.695Z,98562.38
2022-12-31T03:39:29.501Z,98562.98
2022-12-31T03:41:57.288Z,98554.14
2022-12-31T03:44:25.328Z,98558.27
2022-12-31T03:46:53.300Z,98563.46
2022-12-31T03:49:21.332Z,98569.63
2022-12-31T03:51:49.297Z,98569.20
2022-12-31T03:54:17.579Z,98563.02
2022-12-31T03:56:48.875Z,98563.92
2022-12-31T03:59:17.721Z,98564.48
2022-12-31T04:01:46.704Z,98567.41
2022-12-31T04:04:14.889Z,98565.09
2022-12-31T04:06:42.967Z,98565.66
2022-12-31T04:09:11.391Z,98569.61
2022-12-31T04:11:39.736Z,98570.17
2022-12-31T04:14:07.956Z,98570.10
2022-12-31T04:16:36.094Z,98574.09
2022-12-31T04:19:04.503Z,98575.73
2022-12-31T04:21:35.138Z,98574.84
2022-12-31T04:24:03.761Z,98577.48
2022-12-31T04:26:31.493Z,98580.84
2022-12-31T04:28:59.326Z,98580.98
2022-12-31T04:31:28.004Z,98579.77
2022-12-31T04:33:55.722Z,98589.21
2022-12-31T04:36:23.478Z,98592.73
2022-12-31T04:38:51.518Z,98595.28
2022-12-31T04:41:19.654Z,98593.41
2022-12-31T04:43:55.906Z,98595.77
2022-12-31T04:46:27.342Z,98601.46
2022-12-31T04:48:55.591Z,98605.50
2022-12-31T04:51:24.165Z,98604.80
2022-12-31T04:53:53.344Z,98600.69
2022-12-31T04:56:21.945Z,98598.77
2022-12-31T04:58:50.754Z,98606.30
2022-12-31T05:01:18.987Z,98607.05
2022-12-31T05:03:47.416Z,98606.13
2022-12-31T05:06:18.337Z,98607.71
2022-12-31T05:08:47.152Z,98613.20
2022-12-31T05:11:16.322Z,98621.23
2022-12-31T05:13:44.410Z,98615.38
2022-12-31T05:16:12.981Z,98619.20
2022-12-31T05:18:41.270Z,98613.16
2022-12-31T05:21:15.412Z,98617.30
2022-12-31T05:23:44.477Z,98621.61
2022-12-31T05:26:12.425Z,98617.45
2022-12-31T05:28:40.704Z,98608.25
2022-12-31T05:31:09.399Z,98603.42
2022-12-31T05:33:37.729Z,98602.48
2022-12-31T05:36:05.615Z,98602.26
2022-12-31T05:38:33.918Z,98598.81
2022-12-31T05:41:07.691Z,98598.59
2022-12-31T05:43:36.002Z,98606.11
2022-12-31T05:46:05.136Z,98605.66
2022-12-31T05:48:33.614Z,98609.50
2022-12-31T05:51:01.722Z,98606.85
2022-12-31T05:53:30.011Z,98609.80
2022-12-31T05:55:57.870Z,98615.64
2022-12-31T05:58:26.124Z,98621.81
2022-12-31T06:00:53.852Z,98624.92
2022-12-31T06:03:22.092Z,98631.27
2022-12-31T06:05:50.251Z,98626.21
2022-12-31T06:08:18.252Z,98630.87
2022-12-31T06:10:46.402Z,98627.84
2022-12-31T06:13:14.309Z,98620.73
2022-12-31T06:15:42.280Z,98628.51
2022-12-31T06:18:10.706Z,98636.10
2022-12-31T06:20:38.985Z,98644.73
2022-12-31T06:23:06.786Z,98649.48
2022-12-31T06:25:35.688Z,98644.95
2022-12-31T06:28:05.195Z,98645.69
2022-12-31T06:30:33.082Z,98641.68
2022-12-31T06:33:01.092Z,98645.02
2022-12-31T06:35:29.163Z,98641.58
2022-12-31T06:37:57.466Z,98638.68
2022-12-31T06:40:25.380Z,98633.90
2022-12-31T06:42:59.563Z,98624.65
2022-12-31T06:45:28.158Z,98623.89
2022-12-31T06:47:56.199Z,98628.20
2022-12-31T06:50:24.309Z,98624.86
2022-12-31T06:52:52.584Z,98612.11
2022-12-31T06:55:22.113Z,98624.27
2022-12-31T06:57:50.281Z,98633.67
2022-12-31T07:00:19.235Z,98639.49
2022-12-31T07:02:59.222Z,98644.96
2022-12-31T07:05:59.975Z,98651.09
2022-12-31T07:08:41.428Z,98655.07
2022-12-31T07:11:20.913Z,98660.70
2022-12-31T07:14:23.312Z,98664.52
2022-12-31T07:17:03.215Z,98658.83
2022-12-31T07:19:45.577Z,98664.33
2022-12-31T07:22:16.356Z,98666.10
2022-12-31T07:24:44.765Z,98670.91
2022-12-31T07:27:21.028Z,98671.13
2022-12-31T07:30:02.402Z,98680.34
2022-12-31T07:32:57.567Z,98689.35
2022-12-31T07:35:35.316Z,98697.68
2022-12-31T07:38:38.672Z,98694.73
2022-12-31T07:41:18.220Z,98693.56
2022-12-31T07:43:56.212Z,98687.54
2022-12-31T07:46:35.949Z,98680.61
2022-12-31T07:49:04.187Z,98684.64
2022-12-31T07:51:32.172Z,98680.72
2022-12-31T07:53:59.908Z,98683.66
2022-12-31T07:56:29.266Z,98689.79
2022-12-31T07:59:09.228Z,98694.48
2022-12-31T08:01:51.881Z,98698.52
2022-12-31T08:04:49.341Z,98685.55
2022-12-31T08:07:22.839Z,98690.33
2022-12-31T08:10:00.478Z,98688.64
2022-12-31T08:12:33.833Z,98694.92
2022-12-31T08:15:02.413Z,98700.86
2022-12-31T08:17:30.523Z,98702.00
2022-12-31T08:19:58.490Z,98696.95
2022-12-31T08:22:32.209Z,98700.56
2022-12-31T08:25:22.318Z,98704.16
2022-12-31T08:28:24.289Z,98707.99
2022-12-31T08:30:55.337Z,98712.11
2022-12-31T08:33:29.525Z,98708.75
2022-12-31T08:36:17.090Z,98699.77
2022-12-31T08:38:58.235Z,98697.90
2022-12-31T08:41:43.432Z,98697.36
2022-12-31T08:44:35.826Z,98692.39
2022-12-31T08:47:03.634Z,98698.06
2022-12-31T08:49:34.176Z,98705.40
2022-12-31T08:52:03.084Z,98706.98
2022-12-31T08:54:31.760Z,98715.69
2022-12-31T08:57:16.135Z,98721.00
2022-12-31T09:00:06.038Z,98716.73
2022-12-31T09:02:52.585Z,98710.95
2022-12-31T09:05:35.563Z,98703.70
2022-12-31T09:08:09.158Z,98707.50
2022-12-31T09:10:55.335Z,98710.45
2022-12-31T09:13:32.748Z,98702.21
2022-12-31T09:16:28.684Z,98703.08
2022-12-31T09:18:56.704Z,98695.91
2022-12-31T09:21:25.322Z,98686.92
2022-12-31T09:23:53.392Z,98686.02
2022-12-31T09:26:49.337Z,98677.95
2022-12-31T09:29:38.068Z,98670.61
2022-12-31T09:32:14.392Z,98667.60
2022-12-31T09:34:47.497Z,98668.67
2022-12-31T09:37:20.615Z,98665.02
2022-12-31T09:39:48.901Z,98676.61
2022-12-31T09:42:49.339Z,98683.57
2022-12-31T09:45:35.721Z,98688.20
2022-12-31T09:48:45.897Z,98696.02
2022-12-31T09:51:39.153Z,98695.58
2022-12-31T09:54:22.055Z,98692.81
2022-12-31T09:57:25.372Z,98706.47
2022-12-31T10:00:01.523Z,98691.91
2022-12-31T10:03:00.670Z,98688.69
2022-12-31T10:05:56.583Z,98685.62
2022-12-31T10:09:05.942Z,98681.73
2022-12-31T10:12:02.770Z,98667.77
2022-12-31T10:15:06.372Z,98660.57
2022-12-31T10:18:17.875Z,98668.91
2022-12-31T10:20:48.119Z,98667.14
2022-12-31T10:23:32.435Z,98664.16
2022-12-31T10:26:03.143Z,98661.47
2022-12-31T10:28:45.863Z,98664.63
2022-12-31T10:32:04.209Z,98673.06
2022-12-31T10:34:46.513Z,98677.48
2022-12-31T10:37:17.898Z,98679.67
2022-12-31T10:40:10.364Z,98687.73
2022-12-31T10:42:50.662Z,98690.23
2022-12-31T10:45:21.862Z,98694.59
2022-12-31T10:48:22.152Z,98700.75
2022-12-31T10:51:02.192Z,98711.42
2022-12-31T10:53:51.834Z,98712.40
2022-12-31T10:56:37.695Z,98709.10
2022-12-31T10:59:34.514Z,98713.17
2022-12-31T11:02:17.897Z,98703.85
2022-12-31T11:04:54.565Z,98698.02
2022-12-31T11:07:40.835Z,98697.84
2022-12-31T11:10:24.636Z,98691.69
2022-12-31T11:13:19.698Z,98680.08
2022-12-31T11:15:57.992Z,98683.87
2022-12-31T11:19:30.562Z,98685.20
2022-12-31T11:22:23.371Z,98685.04
2022-12-31T11:24:57.303Z,98684.90
2022-12-31T11:27:49.504Z,98679.95
2022-12-31T11:30:36.669Z,98676.23
2022-12-31T11:33:19.642Z,98672.73
2022-12-31T11:35:59.596Z,98668.20
2022-12-31T11:38:31.764Z,98663.61
2022-12-31T11:41:28.315Z,98662.66
2022-12-31T11:44:23.881Z,98665.98
2022-12-31T11:47:13.497Z,98657.04
2022-12-31T11:49:44.158Z,98653.06
2022-12-31T11:52:31.696Z,98659.06
2022-12-31T11:55:12.522Z,98656.31
2022-12-31T11:57:53.369Z,98659.41
2022-12-31T12:00:24.526Z,98661.60
2022-12-31T12:02:58.493Z,98660.80
2022-12-31T12:05:27.490Z,98661.71
2022-12-31T12:07:55.577Z,98663.88
2022-12-31T12:10:36.463Z,98654.90
2022-12-31T12:13:22.361Z,98646.70
2022-12-31T12:15:54.874Z,98654.40
2022-12-31T12:18:37.040Z,98653.46
2022-12-31T12:21:13.175Z,98641.16
2022-12-31T12:23:42.552Z,98644.14
2022-12-31T12:26:36.233Z,98642.98
2022-12-31T12:29:26.849Z,98638.09
2022-12-31T12:32:02.137Z,98643.20
2022-12-31T12:34:32.731Z,98633.02
2022-12-31T12:37:01.546Z,98641.71
2022-12-31T12:39:31.987Z,98644.23
2022-12-31T12:42:05.474Z,98645.50
2022-12-31T12:44:34.428Z,98638.86
2022-12-31T12:47:08.681Z,98641.18
2022-12-31T12:49:42.529Z,98638.42
2022-12-31T12:52:30.482Z,98647.33
2022-12-31T12:55:19.319Z,98644.77
2022-12-31T12:58:19.053Z,98639.22
2022-12-31T13:00:52.215Z,98639.27
2022-12-31T13:03:22.949Z,98643.69
2022-12-31T13:06:21.957Z,98641.88
2022-12-31T13:09:16.606Z,98636.19
2022-12-31T13:12:08.147Z,98630.23
2022-12-31T13:14:42.138Z,98623.82
2022-12-31T13:17:41.020Z,98617.42
2022-12-31T13:20:38.362Z,98624.73
2022-12-31T13:23:26.335Z,98623.23
2022-12-31T13:26:24.326Z,98634.41
2022-12-31T13:28:53.537Z,98633.99
2022-12-31T13:31:30.323Z,98637.27
2022-12-31T13:34:06.398Z,98635.02
2022-12-31T13:36:38.525Z,98642.80
2022-12-31T13:39:20.999Z,98645.98
2022-12-31T13:41:59.189Z,98644.69
2022-12-31T13:44:29.831Z,98653.73
2022-12-31T13:47:11.494Z,98646.97
2022-12-31T13:50:14.398Z,98649.12
2022-12-31T13:53:04.857Z,98653.52
2022-12-31T13:55:35.290Z,98657.14
2022-12-31T13:58:26.816Z,98662.83
2022-12-31T14:01:03.695Z,98660.69
2022-12-31T14:03:40.260Z,98663.05
2022-12-31T14:06:43.463Z,98661.04
2022-12-31T14:09:18.075Z,98668.05
2022-12-31T14:12:09.746Z,98678.59
2022-12-31T14:14:43.743Z,98685.49
2022-12-31T14:17:42.564Z,98681.68
2022-12-31T14:20:21.831Z,98684.02
2022-12-31T14:23:13.786Z,98690.27
2022-12-31T14:25:49.281Z,98690.88
2022-12-31T14:28:27.752Z,98688.04
2022-12-31T14:31:42.787Z,98693.95
2022-12-31T14:34:29.765Z,98694.12
2022-12-31T14:37:10.137Z,98694.51
2022-12-31T14:40:18.250Z,98695.89
2022-12-31T14:43:00.668Z,98698.55
2022-12-31T14:46:04.500Z,98699.29
2022-12-31T14:48:57.146Z,98699.09
2022-12-31T14:51:30.007Z,98689.46
2022-12-31T14:53:58.576Z,98692.83
2022-12-31T14:56:53.086Z,98686.60
2022-12-31T14:59:34.491Z,98685.36
2022-12-31T15:02:27.243Z,98688.66
2022-12-31T15:05:11.531Z,98690.96
2022-12-31T15:07:57.936Z,98688.79
2022-12-31T15:10:34.507Z,98684.61
2022-12-31T15:13:15.081Z,98686.80
2022-12-31T15:16:04.087Z,98686.81
2022-12-31T15:18:52.503Z,98691.37
2022-12-31T15:21:39.190Z,98695.27
2022-12-31T15:24:18.915Z,98700.13
2022-12-31T15:26:53.705Z,98695.88
2022-12-31T15:29:44.439Z,98701.85
2022-12-31T15:32:23.781Z,98700.92
2022-12-31T15:35:45.432Z,98701.42
2022-12-31T15:38:13.636Z,98697.17
2022-12-31T15:40:47.085Z,98696.11
2022-12-31T15:43:28.132Z,98701.44
2022-12-31T15:45:57.873Z,98711.17
2022-12-31T15:48:51.650Z,98709.34
2022-12-31T15:51:26.124Z,98703.78
2022-12-31T15:53:57.333Z,98707.16
2022-12-31T15:56:38.911Z,98700.63
2022-12-31T15:59:14.368Z,98699.63
2022-12-31T16:01:44.476Z,98704.26
2022-12-31T16:04:15.997Z,98706.85
2022-12-31T16:06:50.639Z,98717.39
2022-12-31T16:09:29.176Z,98722.51
2022-12-31T16:11:59.901Z,98721.33
2022-12-31T16:14:52.721Z,98717.97
2022-12-31T16:17:29.111Z,98722.88
2022-12-31T16:19:58.701Z,98725.83
2022-12-31T16:22:38.693Z,98729.24
2022-12-31T16:25:33.985Z,98737.47
2022-12-31T16:28:03.715Z,98736.39
2022-12-31T16:30:33.437Z,98734.21
2022-12-31T16:33:12.244Z,98729.98
2022-12-31T16:35:41.716Z,98732.51
2022-12-31T16:38:13.863Z,98736.30
2022-12-31T16:41:06.320Z,98742.21
2022-12-31T16:43:38.069Z,98745.64
2022-12-31T16:46:16.288Z,98745.36
2022-12-31T16:48:51.779Z,98743.15
2022-12-31T16:51:22.810Z,98745.56
2022-12-31T16:53:51.656Z,98750.59
2022-12-31T16:56:26.312Z,98762.98
2022-12-31T16:59:04.830Z,98768.73
2022-12-31T17:01:35.674Z,98769.04
2022-12-31T17:04:10.470Z,98774.05
2022-12-31T17:06:39.229Z,98770.23
2022-12-31T17:09:14.422Z,98765.55
2022-12-31T17:11:55.443Z,98756.42
2022-12-31T17:14:29.204Z,98751.04
2022-12-31T17:17:06.979Z,98755.19
2022-12-31T17:19:41.771Z,98760.35
2022-12-31T17:22:37.284Z,98766.08
2022-12-31T17:25:28.807Z,98759.08
2022-12-31T17:28:05.200Z,98756.65
2022-12-31T17:30:33.593Z,98764.61
2022-12-31T17:33:03.491Z,98765.74
2022-12-31T17:36:12.872Z,98762.86
2022-12-31T17:38:42.142Z,98759.95
2022-12-31T17:41:26.336Z,98762.81
2022-12-31T17:43:56.189Z,98764.14
2022-12-31T17:46:25.954Z,98761.70
2022-12-31T17:48:59.183Z,98769.95
2022-12-31T17:51:27.072Z,98771.20
2022-12-31T17:53:55.224Z,98771.34
2022-12-31T17:56:23.583Z,98776.55
2022-12-31T17:58:53.443Z,98778.04
2022-12-31T18:01:23.757Z,98778.21
2022-12-31T18:03:51.897Z,98786.21
2022-12-31T18:06:20.029Z,98785.52
2022-12-31T18:08:47.812Z,98786.92
2022-12-31T18:11:22.298Z,98789.62
2022-12-31T18:13:50.683Z,98787.69
2022-12-31T18:16:18.696Z,98786.77
2022-12-31T18:18:46.720Z,98785.27
2022-12-31T18:21:28.323Z,98785.45
2022-12-31T18:26:24.963Z,98778.56
2022-12-31T18:28:53.283Z,98782.05
2022-12-31T18:31:27.773Z,98773.95
2022-12-31T18:33:59.334Z,98780.96
2022-12-31T18:36:28.501Z,98786.23
2022-12-31T18:38:57.042Z,98781.24
2022-12-31T18:41:28.422Z,98775.69
2022-12-31T18:43:56.888Z,98782.09
2022-12-31T18:46:25.410Z,98782.75
2022-12-31T18:48:53.651Z,98782.06
2022-12-31T18:51:31.521Z,98785.52
2022-12-31T18:54:01.994Z,98786.13
2022-12-31T18:56:30.569Z,98784.39
2022-12-31T18:58:58.505Z,98779.11
2022-12-31T19:01:32.564Z,98786.34
2022-12-31T19:04:03.595Z,98786.27
2022-12-31T19:06:33.085Z,98796.88
2022-12-31T19:09:01.176Z,98791.58
2022-12-31T19:11:29.965Z,98794.27
2022-12-31T19:14:01.332Z,98801.66
2022-12-31T19:16:30.926Z,98803.02
2022-12-31T19:19:02.603Z,98801.77
2022-12-31T19:21:32.931Z,98793.20
2022-12-31T19:24:01.890Z,98795.55
2022-12-31T19:26:30.051Z,98801.58
2022-12-31T19:28:57.713Z,98801.73
2022-12-31T19:31:25.561Z,98807.73
2022-12-31T19:33:53.706Z,98810.41
2022-12-31T19:36:21.724Z,98809.95
2022-12-31T19:38:49.398Z,98808.16
2022-12-31T19:41:19.418Z,98814.52
2022-12-31T19:43:47.730Z,98809.53
2022-12-31T19:46:19.345Z,98809.70
2022-12-31T19:48:47.510Z,98807.39
2022-12-31T19:51:18.747Z,98801.46
2022-12-31T19:53:48.223Z,98803.59
2022-12-31T19:56:19.210Z,98803.20
2022-12-31T19:58:47.870Z,98804.66
2022-12-31T20:01:22.507Z,98820.64
2022-12-31T20:03:51.473Z,98830.55
2022-12-31T20:06:20.044Z,98833.48
2022-12-31T20:08:48.126Z,98826.31
2022-12-31T20:11:18.383Z,98835.85
2022-12-31T20:13:48.248Z,98833.64
2022-12-31T20:16:18.639Z,98827.13
2022-12-31T20:18:47.919Z,98830.71
2022-12-31T20:21:19.098Z,98830.84
2022-12-31T20:23:48.677Z,98833.02
2022-12-31T20:26:17.573Z,98837.21
2022-12-31T20:28:46.085Z,98835.58
2022-12-31T20:31:16.805Z,98833.18
2022-12-31T20:33:45.544Z,98828.30
2022-12-31T20:36:16.500Z,98825.27
2022-12-31T20:38:45.405Z,98822.01
2022-12-31T20:41:23.221Z,98818.64
2022-12-31T20:43:51.526Z,98814.52
2022-12-31T20:46:25.059Z,98805.23
2022-12-31T20:48:55.224Z,98807.60
2022-12-31T20:51:23.568Z,98812.39
2022-12-31T20:53:57.218Z,98811.98
2022-12-31T20:56:26.699Z,98803.98
2022-12-31T20:58:54.733Z,98798.98
2022-12-31T21:01:23.210Z,98795.14
2022-12-31T21:04:07.806Z,98793.64
2022-12-31T21:06:36.828Z,98795.02
2022-12-31T21:09:07.614Z,98789.26
2022-12-31T21:11:36.322Z,98789.91
2022-12-31T21:14:04.424Z,98793.79
2022-12-31T21:16:32.510Z,98798.30
2022-12-31T21:19:00.488Z,98805.02
2022-12-31T21:21:28.519Z,98802.74
2022-12-31T21:23:56.475Z,98803.02
2022-12-31T21:26:25.126Z,98804.65
2022-12-31T21:28:53.395Z,98802.85
2022-12-31T21:31:21.569Z,98796.16
2022-12-31T21:33:49.451Z,98798.92
2022-12-31T21:36:17.295Z,98792.41
2022-12-31T21:38:45.067Z,98791.81
2022-12-31T21:41:13.252Z,98794.83
2022-12-31T21:43:41.260Z,98796.10
2022-12-31T21:46:09.755Z,98797.20
2022-12-31T21:48:37.634Z,98800.72
2022-12-31T21:51:10.844Z,98802.33
2022-12-31T21:53:39.043Z,98808.19
2022-12-31T21:56:07.714Z,98815.86
2022-12-31T21:58:40.154Z,98823.61
2022-12-31T22:01:20.127Z,98830.95
2022-12-31T22:03:48.150Z,98833.56
2022-12-31T22:06:21.334Z,98831.92
2022-12-31T22:08:51.609Z,98832.23
2022-12-31T22:11:21.251Z,98832.63
2022-12-31T22:13:50.047Z,98836.48
2022-12-31T22:16:19.282Z,98838.36
2022-12-31T22:18:48.050Z,98838.29
2022-12-31T22:21:24.456Z,98835.00
2022-12-31T22:23:55.024Z,98832.13
2022-12-31T22:26:26.096Z,98831.96
2022-12-31T22:28:54.001Z,98835.19
2022-12-31T22:31:23.538Z,98839.71
2022-12-31T22:33:53.077Z,98840.98
2022-12-31T22:36:23.965Z,98836.48
2022-12-31T22:38:56.076Z,98838.84
2022-12-31T22:41:25.381Z,98840.73
2022-12-31T22:44:02.650Z,98842.52
2022-12-31T22:46:33.955Z,98843.30
2022-12-31T22:49:04.234Z,98843.33
2022-12-31T22:51:55.288Z,98841.75
2022-12-31T22:54:21.195Z,98838.92
2022-12-31T22:56:48.960Z,98834.20
2022-12-31T22:59:16.871Z,98833.32
2022-12-31T23:01:45.115Z,98833.16
2022-12-31T23:04:13.558Z,98832.23
2022-12-31T23:06:41.615Z,98827.62
2022-12-31T23:09:11.742Z,98830.04
2022-12-31T23:11:39.921Z,98824.90
2022-12-31T23:14:14.700Z,98826.95
2022-12-31T23:16:42.940Z,98829.54
2022-12-31T23:19:11.522Z,98833.64
2022-12-31T23:21:39.457Z,98831.98
2022-12-31T23:24:13.481Z,98832.70
2022-12-31T23:26:45.944Z,98839.90
2022-12-31T23:29:13.990Z,98842.89
2022-12-31T23:31:42.220Z,98846.91
2022-12-31T23:34:10.480Z,98841.42
2022-12-31T23:36:38.501Z,98838.48
2022-12-31T23:39:06.519Z,98834.88
2022-12-31T23:41:34.564Z,98835.36
2022-12-31T23:44:02.479Z,98837.42
2022-12-31T23:46:30.618Z,98838.66
2022-12-31T23:48:58.377Z,98844.57
2022-12-31T23:51:26.468Z,98850.63
2022-12-31T23:53:54.125Z,98850.45
2022-12-31T23:56:24.042Z,98848.09
2022-12-31T23:58:59.368Z,98850.27
